CST,Max TemperatureF,Mean TemperatureF,Min TemperatureF,Max Dew PointF,MeanDew PointF,Min DewpointF,Max Humidity, Mean Humidity, Min Humidity, Max Sea Level PressureIn, Mean Sea Level PressureIn, Min Sea Level PressureIn, Max VisibilityMiles, Mean VisibilityMiles, Min VisibilityMiles, Max Wind SpeedMPH, Mean Wind SpeedMPH, Max Gust SpeedMPH,PrecipitationIn, CloudCover, Events, WindDirDegrees
2014-2-1,6,-2,-11,1,-6,-17,85,77,66,30.15,30.05,29.82,10,9,2,17,10,22,0.00,3,Rain-Snow,311
2014-2-2,15,2,-11,5,-3,-17,85,75,62,30.13,30.04,29.96,10,10,10,13,7,20,0.00,3,,237
2014-2-3,14,2,-9,5,-2,-17,85,73,62,30.43,30.22,30.08,10,9,0,20,11,29,0.05,5,Rain-Snow,288
2014-2-4,3,-5,-13,-8,-13,-18,77,70,56,30.61,30.54,30.44,10,10,10,12,9,,0.00,2,,294
2014-2-5,1,-3,-7,-6,-10,-13,78,72,65,30.66,30.58,30.42,10,10,2,15,9,21,0.00,3,,315
2014-2-6,8,0,-9,0,-6,-15,85,72,62,30.41,30.15,29.90,10,8,1,30,14,41,0.00,3,Rain-Snow,275
2014-2-7,6,-2,-11,-2,-7,-17,85,69,56,30.07,29.96,29.86,10,9,4,25,13,31,0.00,0,,291
2014-2-8,0,-8,-16,-6,-12,-20,85,78,71,30.31,30.19,30.07,10,9,2,14,4,,0.00,3,Rain-Snow,325
2014-2-9,-2,-9,-16,-11,-16,-20,84,71,60,30.42,30.36,30.30,10,10,10,15,8,17,0.00,0,,305
2014-2-10,0,-9,-18,-9,-16,-24,84,74,60,30.47,30.42,30.28,10,10,10,13,6,,0.00,0,,218
2014-2-11,24,6,-11,18,-4,-17,92,80,72,30.27,29.94,29.68,10,8,0,26,15,34,0.01,3,Rain-Snow,200
2014-2-12,8,3,-2,5,-4,-8,92,78,72,30.16,29.95,29.46,10,9,0,16,9,24,0.02,3,Snow,95
2014-2-13,10,2,-7,7,-4,-15,92,80,71,29.93,29.73,29.43,10,4,0,26,16,39,0.61,5,Rain-Snow,350
2014-2-14,6,-2,-9,0,-8,-17,92,70,52,30.09,29.97,29.77,10,10,3,17,9,17,0.00,4,,257
2014-2-15,6,4,1,1,-1,-4,92,80,72,30.22,29.93,29.70,10,8,2,22,10,30,0.03,6,Rain-Snow,338
2014-2-16,17,8,0,14,3,-4,93,83,73,30.19,29.99,29.73,10,8,0,21,9,30,0.01,7,Snow,158
2014-2-17,33,24,15,23,18,14,93,83,60,29.73,29.56,29.41,10,7,0,16,10,21,0.11,3,Snow,191
2014-2-18,37,26,15,23,21,14,93,72,56,29.65,29.53,29.41,10,10,4,23,10,29,0.00,0,,276
2014-2-19,26,14,3,18,14,1,100,85,69,29.66,29.61,29.52,10,9,1,17,9,22,0.11,1,Snow,339
2014-2-20,17,9,1,14,5,-2,93,82,67,29.75,29.64,29.51,10,9,3,22,15,28,0.00,4,Rain-Snow,328
2014-2-21,10,5,0,1,-1,-4,92,79,67,29.79,29.68,29.63,10,5,1,25,20,37,0.00,4,Rain-Snow,321
2014-2-22,10,4,-2,0,-2,-9,78,72,62,30.09,29.95,29.79,10,10,5,24,17,32,0.00,0,,301
2014-2-23,10,4,-2,0,-3,-11,78,70,62,30.31,30.22,30.10,10,10,8,21,13,28,0.00,1,,297
2014-2-24,0,-6,-11,-9,-12,-18,77,67,60,30.37,30.33,30.28,10,10,10,17,12,23,0.00,0,,286
2014-2-25,0,-4,-9,-11,-14,-17,77,64,55,30.44,30.33,30.15,10,10,5,23,15,31,0.00,0,,306
2014-2-26,10,-2,-13,1,-8,-24,79,68,55,30.15,29.89,29.65,10,8,0,33,19,43,0.06,2,Rain-Snow,318
2014-2-27,-2,-14,-27,-11,-20,-33,77,69,55,30.18,30.06,29.83,10,10,10,14,6,17,0.00,0,,182
2014-2-28,0,-6,-13,-6,-12,-22,78,73,59,30.38,29.99,29.72,10,7,0,28,14,36,0.04,4,Rain-Snow,324